Time;durP1;ratioP1;P1;durP2;ratioP2;P2;SDS_P1;SDS_P2;PMS_P1;PMS_P2;Temp;Humidity;BMP_temperature;BMP_pressure;BME280_temperature;BME280_humidity;BME280_pressure;Samples;Min_cycle;Max_cycle;Signal;HPM_P1;HPM_P2
2024/01/24 00:01:43;;;;;;;52.23;49.13;;;;;;;;;;4148084;28;20034;-67
2024/01/24 00:03:45;;;;;;;52.95;49.35;;;;;;;;;;4147826;28;20760;-68
2024/01/24 00:05:46;;;;;;;51.50;48.17;;;;;;;;;;4147687;28;20041;-68
2024/01/24 00:07:48;;;;;;;48.57;46.03;;;;;;;;;;4130099;28;20046;-68
2024/01/24 00:09:52;;;;;;;43.63;41.13;;;;;;;;;;4148083;28;20117;-68
2024/01/24 00:11:56;;;;;;;48.92;45.80;;;;;;;;;;4148846;28;20038;-67
2024/01/24 00:13:58;;;;;;;47.75;44.88;;;;;;;;;;4162942;28;20148;-68
2024/01/24 00:15:59;;;;;;;47.58;44.97;;;;;;;;;;4163421;28;20037;-68
2024/01/24 00:18:01;;;;;;;48.33;45.13;;;;;;;;;;4163884;28;20047;-68
2024/01/24 00:20:03;;;;;;;46.13;43.63;;;;;;;;;;4164301;28;20310;-68
2024/01/24 00:22:05;;;;;;;44.17;41.97;;;;;;;;;;4147636;28;20040;-67
2024/01/24 00:24:07;;;;;;;49.10;46.30;;;;;;;;;;4148012;28;20038;-67
2024/01/24 00:26:08;;;;;;;47.72;45.13;;;;;;;;;;4147638;28;20100;-68
2024/01/24 00:28:11;;;;;;;45.95;43.17;;;;;;;;;;4130527;28;20077;-67
2024/01/24 00:30:13;;;;;;;58.03;53.53;;;;;;;;;;4147692;28;20116;-67
2024/01/24 00:32:15;;;;;;;60.30;55.30;;;;;;;;;;4147480;28;20132;-68
2024/01/24 00:34:16;;;;;;;58.17;53.40;;;;;;;;;;4147918;28;20437;-67
2024/01/24 00:36:19;;;;;;;62.13;57.10;;;;;;;;;;4147759;28;20042;-67
2024/01/24 00:38:21;;;;;;;59.03;54.53;;;;;;;;;;4159071;28;20034;-67
2024/01/24 00:40:23;;;;;;;59.50;54.73;;;;;;;;;;4163932;28;20144;-68
2024/01/24 00:42:24;;;;;;;56.00;51.73;;;;;;;;;;4163780;28;20116;-67
2024/01/24 00:44:26;;;;;;;66.93;59.97;;;;;;;;;;4163570;28;20037;-67
2024/01/24 00:46:28;;;;;;;55.75;51.47;;;;;;;;;;4162851;28;20122;-68
2024/01/24 00:48:29;;;;;;;55.00;50.88;;;;;;;;;;4148292;28;20041;-68
2024/01/24 00:50:31;;;;;;;53.77;50.27;;;;;;;;;;4175338;28;20098;-67
2024/01/24 00:52:33;;;;;;;53.73;49.93;;;;;;;;;;4163252;28;20128;-68
2024/01/24 00:54:35;;;;;;;54.95;51.22;;;;;;;;;;4163658;28;20095;-67
2024/01/24 00:56:36;;;;;;;57.03;52.97;;;;;;;;;;4163677;28;20393;-67
2024/01/24 00:58:38;;;;;;;52.37;48.40;;;;;;;;;;4163710;28;20334;-68
2024/01/24 01:00:40;;;;;;;58.85;54.00;;;;;;;;;;4163912;28;20037;-68
2024/01/24 01:02:43;;;;;;;55.87;51.90;;;;;;;;;;4163812;28;20120;-68
2024/01/24 01:04:47;;;;;;;55.00;51.33;;;;;;;;;;4163386;28;20372;-67
2024/01/24 01:06:49;;;;;;;49.00;46.15;;;;;;;;;;4163576;28;20505;-67
2024/01/24 01:08:50;;;;;;;53.97;50.73;;;;;;;;;;4163783;28;20046;-67
2024/01/24 01:10:52;;;;;;;53.67;50.50;;;;;;;;;;4163709;28;20514;-68
2024/01/24 01:12:54;;;;;;;51.75;48.22;;;;;;;;;;4163283;28;20053;-68
2024/01/24 01:14:55;;;;;;;55.00;51.67;;;;;;;;;;4163904;28;20045;-68
2024/01/24 01:16:57;;;;;;;52.33;48.87;;;;;;;;;;4168758;28;20037;-68
2024/01/24 01:18:59;;;;;;;52.63;49.17;;;;;;;;;;4180196;28;20451;-68
2024/01/24 01:21:01;;;;;;;51.80;48.50;;;;;;;;;;4182428;28;20041;-68
2024/01/24 01:23:05;;;;;;;54.37;51.17;;;;;;;;;;4165436;28;20456;-68
2024/01/24 01:25:07;;;;;;;50.15;47.42;;;;;;;;;;4165399;28;20128;-68
2024/01/24 01:27:08;;;;;;;50.22;47.42;;;;;;;;;;4183243;28;20047;-68
2024/01/24 01:29:10;;;;;;;42.00;39.85;;;;;;;;;;4183220;28;20460;-67
2024/01/24 01:31:12;;;;;;;39.05;37.25;;;;;;;;;;4183037;28;20045;-67
2024/01/24 01:33:13;;;;;;;43.57;41.47;;;;;;;;;;4182875;28;20120;-67
2024/01/24 01:35:15;;;;;;;49.57;46.50;;;;;;;;;;4183160;28;20041;-68
2024/01/24 01:37:17;;;;;;;47.40;44.83;;;;;;;;;;4180131;28;20283;-68
2024/01/24 01:39:18;;;;;;;43.53;41.37;;;;;;;;;;4165402;28;20045;-68
2024/01/24 01:41:20;;;;;;;48.17;45.58;;;;;;;;;;4148758;28;20034;-68
2024/01/24 01:43:24;;;;;;;47.88;45.50;;;;;;;;;;4166101;28;20041;-67
2024/01/24 01:45:25;;;;;;;50.92;47.85;;;;;;;;;;4166161;28;20091;-68
2024/01/24 01:47:27;;;;;;;51.90;48.00;;;;;;;;;;4148461;28;20498;-68
2024/01/24 01:49:28;;;;;;;59.27;54.67;;;;;;;;;;4178330;28;20053;-68
2024/01/24 01:51:30;;;;;;;52.28;48.80;;;;;;;;;;4170424;28;20045;-68
2024/01/24 01:53:38;;;;;;;54.07;50.73;;;;;;;;;;4166195;28;20041;-68
2024/01/24 01:55:40;;;;;;;51.28;48.22;;;;;;;;;;4166302;28;20045;-68
2024/01/24 01:57:42;;;;;;;54.88;50.75;;;;;;;;;;4165950;28;20049;-67
2024/01/24 01:59:44;;;;;;;;;;;;;;;;;;4165826;28;20133;-67
2024/01/24 02:01:46;;;;;;;49.75;47.08;;;;;;;;;;4166361;28;19921;-68
2024/01/24 02:03:48;;;;;;;55.10;51.60;;;;;;;;;;4157681;28;20070;-67
2024/01/24 02:05:50;;;;;;;51.10;48.25;;;;;;;;;;4149271;28;20469;-68
2024/01/24 02:07:52;;;;;;;51.15;48.05;;;;;;;;;;4149573;28;20121;-68
2024/01/24 02:09:54;;;;;;;49.85;47.38;;;;;;;;;;4156030;28;20457;-68
2024/01/24 02:11:56;;;;;;;49.90;47.33;;;;;;;;;;4165533;28;20053;-67
2024/01/24 02:14:01;;;;;;;50.70;47.73;;;;;;;;;;4166066;28;20041;-67
2024/01/24 02:16:03;;;;;;;52.72;49.80;;;;;;;;;;4165648;28;20288;-68
2024/01/24 02:18:05;;;;;;;;;;;;;;;;;;4166094;28;20045;-67
2024/01/24 02:20:10;;;;;;;47.13;44.35;;;;;;;;;;4165747;28;19921;-67
2024/01/24 02:22:12;;;;;;;50.80;47.80;;;;;;;;;;4165688;28;20536;-67
2024/01/24 02:24:14;;;;;;;51.45;48.65;;;;;;;;;;4165593;28;20087;-67
2024/01/24 02:26:15;;;;;;;51.03;47.88;;;;;;;;;;4148317;28;20034;-67
2024/01/24 02:28:17;;;;;;;49.45;46.45;;;;;;;;;;4147843;28;20572;-67
2024/01/24 02:30:19;;;;;;;55.43;51.83;;;;;;;;;;4164627;28;20042;-67
2024/01/24 02:32:20;;;;;;;57.10;53.53;;;;;;;;;;4159464;28;20037;-67
2024/01/24 02:34:22;;;;;;;56.20;52.80;;;;;;;;;;4149349;28;20045;-67
2024/01/24 02:36:24;;;;;;;53.57;49.87;;;;;;;;;;4149011;28;20049;-67
2024/01/24 02:38:25;;;;;;;52.90;49.40;;;;;;;;;;4149161;28;20037;-67
2024/01/24 02:40:27;;;;;;;53.20;50.17;;;;;;;;;;4149125;28;20050;-67
2024/01/24 02:42:29;;;;;;;54.25;50.88;;;;;;;;;;4148755;28;20038;-68
2024/01/24 02:44:33;;;;;;;51.00;48.05;;;;;;;;;;4148615;28;20038;-67
2024/01/24 02:46:35;;;;;;;55.78;52.35;;;;;;;;;;4147230;28;20065;-67
2024/01/24 02:48:36;;;;;;;52.78;49.67;;;;;;;;;;4150991;28;20523;-67
2024/01/24 02:50:38;;;;;;;52.27;48.77;;;;;;;;;;4159176;28;20092;-67
2024/01/24 02:52:40;;;;;;;50.73;47.97;;;;;;;;;;4147590;28;20459;-67
2024/01/24 02:54:42;;;;;;;52.17;49.38;;;;;;;;;;4155085;28;20088;-67
2024/01/24 02:56:44;;;;;;;51.70;48.65;;;;;;;;;;4164713;28;20069;-68
2024/01/24 02:58:46;;;;;;;53.78;50.55;;;;;;;;;;4163782;28;20042;-68
2024/01/24 03:00:47;;;;;;;53.58;50.58;;;;;;;;;;4164759;28;20497;-67
2024/01/24 03:02:49;;;;;;;49.00;46.13;;;;;;;;;;4165251;28;20065;-67
2024/01/24 03:04:51;;;;;;;52.03;48.80;;;;;;;;;;4164977;28;20459;-68
2024/01/24 03:06:55;;;;;;;52.70;49.67;;;;;;;;;;4152524;28;20502;-68
2024/01/24 03:08:58;;;;;;;49.95;46.95;;;;;;;;;;4149826;28;20050;-67
2024/01/24 03:10:59;;;;;;;;;;;;;;;;;;4165311;28;20045;-68
2024/01/24 03:13:01;;;;;;;50.45;47.63;;;;;;;;;;4174984;28;19921;-68
2024/01/24 03:15:03;;;;;;;49.95;47.08;;;;;;;;;;4181576;28;20114;-68
2024/01/24 03:17:04;;;;;;;45.40;42.65;;;;;;;;;;4181361;28;20041;-68
2024/01/24 03:19:07;;;;;;;49.92;47.13;;;;;;;;;;4163934;28;20374;-67
2024/01/24 03:21:13;;;;;;;50.05;47.25;;;;;;;;;;4181056;28;20570;-67
2024/01/24 03:23:16;;;;;;;47.95;45.58;;;;;;;;;;4181328;28;20488;-62
2024/01/24 03:25:18;;;;;;;43.53;41.63;;;;;;;;;;4181096;28;20463;-61
2024/01/24 03:27:20;;;;;;;49.22;47.03;;;;;;;;;;4181102;28;20055;-62
2024/01/24 03:29:22;;;;;;;48.25;45.33;;;;;;;;;;4163506;28;20116;-62
2024/01/24 03:31:24;;;;;;;46.10;43.85;;;;;;;;;;4180065;28;20488;-62
2024/01/24 03:33:25;;;;;;;51.70;48.90;;;;;;;;;;4179754;28;20091;-62
2024/01/24 03:35:27;;;;;;;52.08;49.17;;;;;;;;;;4181304;28;20096;-62
2024/01/24 03:37:29;;;;;;;49.60;46.92;;;;;;;;;;4176718;28;20037;-62
2024/01/24 03:39:30;;;;;;;51.17;48.47;;;;;;;;;;4147320;28;20445;-61
2024/01/24 03:41:32;;;;;;;50.85;48.05;;;;;;;;;;4164606;28;20037;-61
2024/01/24 03:43:37;;;;;;;48.08;45.28;;;;;;;;;;4163928;28;20076;-61
2024/01/24 03:45:38;;;;;;;55.33;52.47;;;;;;;;;;4164647;28;20104;-61
2024/01/24 03:47:40;;;;;;;49.22;46.67;;;;;;;;;;4164244;28;20517;-61
2024/01/24 03:49:42;;;;;;;49.88;47.17;;;;;;;;;;4176732;28;20045;-61
2024/01/24 03:51:44;;;;;;;51.27;48.60;;;;;;;;;;4180494;28;20063;-62
2024/01/24 03:53:46;;;;;;;;;;;;;;;;;;4181208;28;20513;-62
2024/01/24 03:55:48;;;;;;;45.13;42.72;;;;;;;;;;4180798;28;20038;-62
2024/01/24 03:57:49;;;;;;;46.87;44.77;;;;;;;;;;4180816;28;20037;-62
2024/01/24 03:59:51;;;;;;;51.08;48.40;;;;;;;;;;4180996;28;20045;-62
2024/01/24 04:01:53;;;;;;;47.30;44.67;;;;;;;;;;4178034;28;20033;-61
2024/01/24 04:03:54;;;;;;;54.93;51.27;;;;;;;;;;4164249;28;20038;-62
2024/01/24 04:05:56;;;;;;;50.55;47.85;;;;;;;;;;4171320;28;20087;-62
2024/01/24 04:07:58;;;;;;;49.20;46.50;;;;;;;;;;4180613;28;20040;-62
2024/01/24 04:09:59;;;;;;;44.25;42.47;;;;;;;;;;4180845;28;20052;-62
2024/01/24 04:12:01;;;;;;;47.47;45.22;;;;;;;;;;4162787;28;20045;-61
2024/01/24 04:14:05;;;;;;;45.17;43.30;;;;;;;;;;4180759;28;20090;-61
2024/01/24 04:16:06;;;;;;;50.17;47.20;;;;;;;;;;4180510;28;20287;-62
2024/01/24 04:18:09;;;;;;;51.30;48.53;;;;;;;;;;4179252;28;20087;-62
2024/01/24 04:20:11;;;;;;;51.72;49.00;;;;;;;;;;4180821;28;20041;-62
2024/01/24 04:22:13;;;;;;;47.30;44.73;;;;;;;;;;4180335;28;20037;-62
2024/01/24 04:24:15;;;;;;;51.47;48.33;;;;;;;;;;4180579;28;20398;-61
2024/01/24 04:26:20;;;;;;;45.80;43.58;;;;;;;;;;4180509;28;20047;-62
2024/01/24 04:28:21;;;;;;;50.25;47.78;;;;;;;;;;4180508;28;20124;-61
2024/01/24 04:30:23;;;;;;;47.67;45.22;;;;;;;;;;4180447;28;20119;-62
2024/01/24 04:32:24;;;;;;;47.17;44.73;;;;;;;;;;4180728;28;20045;-61
2024/01/24 04:34:26;;;;;;;47.80;45.37;;;;;;;;;;4180701;28;20055;-61
2024/01/24 04:36:28;;;;;;;42.37;40.77;;;;;;;;;;4180428;28;20447;-62
2024/01/24 04:38:29;;;;;;;49.70;47.40;;;;;;;;;;4167822;28;20038;-62
2024/01/24 04:40:31;;;;;;;47.75;45.45;;;;;;;;;;4163919;28;20272;-61
2024/01/24 04:42:33;;;;;;;46.22;44.20;;;;;;;;;;4163677;28;20038;-61
2024/01/24 04:44:35;;;;;;;45.73;43.87;;;;;;;;;;4164117;28;20535;-61
2024/01/24 04:46:36;;;;;;;44.80;42.70;;;;;;;;;;4165911;28;20034;-62
2024/01/24 04:48:38;;;;;;;47.25;45.10;;;;;;;;;;4180277;28;20098;-62
2024/01/24 04:50:40;;;;;;;44.33;42.13;;;;;;;;;;4175339;28;20105;-62
2024/01/24 04:52:41;;;;;;;45.33;43.23;;;;;;;;;;4164018;28;20083;-62
2024/01/24 04:54:43;;;;;;;44.88;42.25;;;;;;;;;;4164196;28;20319;-62
2024/01/24 04:56:45;;;;;;;48.05;45.85;;;;;;;;;;4167436;28;20059;-62
2024/01/24 04:58:47;;;;;;;46.80;44.88;;;;;;;;;;4167015;28;20424;-62
2024/01/24 05:00:49;;;;;;;45.13;43.17;;;;;;;;;;4149686;28;20074;-62
2024/01/24 05:02:50;;;;;;;47.40;45.35;;;;;;;;;;4161655;28;20417;-61
2024/01/24 05:04:52;;;;;;;50.22;47.47;;;;;;;;;;4183366;28;20036;-61
2024/01/24 05:06:54;;;;;;;49.03;46.55;;;;;;;;;;4182999;28;20119;-62
2024/01/24 05:08:55;;;;;;;49.88;47.22;;;;;;;;;;4168854;28;20044;-62
2024/01/24 05:10:57;;;;;;;50.38;47.65;;;;;;;;;;4166688;28;20466;-62
2024/01/24 05:12:59;;;;;;;49.78;47.22;;;;;;;;;;4166339;28;20103;-62
2024/01/24 05:15:00;;;;;;;44.78;42.40;;;;;;;;;;4162766;28;20049;-62
2024/01/24 05:17:02;;;;;;;48.73;46.03;;;;;;;;;;4166610;28;20045;-62
2024/01/24 05:19:04;;;;;;;47.30;44.55;;;;;;;;;;4149466;28;20068;-61
2024/01/24 05:21:05;;;;;;;48.57;46.07;;;;;;;;;;4166547;28;20580;-62
2024/01/24 05:23:07;;;;;;;50.23;47.80;;;;;;;;;;4165652;28;20038;-62
2024/01/24 05:25:12;;;;;;;49.20;46.63;;;;;;;;;;4166878;28;20048;-62
2024/01/24 05:27:13;;;;;;;52.28;49.08;;;;;;;;;;4166791;28;20076;-62
2024/01/24 05:29:15;;;;;;;54.08;50.45;;;;;;;;;;4166484;28;20512;-61
2024/01/24 05:31:17;;;;;;;48.30;45.75;;;;;;;;;;4166518;28;20049;-62
2024/01/24 05:33:18;;;;;;;49.30;46.37;;;;;;;;;;4166520;28;20412;-62
2024/01/24 05:35:20;;;;;;;54.17;50.83;;;;;;;;;;4166633;28;20782;-62
2024/01/24 05:37:22;;;;;;;56.30;52.63;;;;;;;;;;4165991;28;20373;-62
2024/01/24 05:39:24;;;;;;;51.72;48.78;;;;;;;;;;4166391;28;20280;-61
2024/01/24 05:41:26;;;;;;;51.97;48.95;;;;;;;;;;4148441;28;20053;-62
2024/01/24 05:43:28;;;;;;;51.45;47.78;;;;;;;;;;4172184;28;20036;-67
2024/01/24 05:45:29;;;;;;;51.00;48.40;;;;;;;;;;4166207;28;20042;-67
2024/01/24 05:47:34;;;;;;;49.50;46.92;;;;;;;;;;4166175;28;20045;-67
2024/01/24 05:49:38;;;;;;;48.45;45.75;;;;;;;;;;4161615;28;20083;-67
2024/01/24 05:51:42;;;;;;;54.13;51.28;;;;;;;;;;4168967;28;20046;-67
2024/01/24 05:53:44;;;;;;;50.22;47.42;;;;;;;;;;4166452;28;20037;-67
2024/01/24 05:55:46;;;;;;;55.37;52.10;;;;;;;;;;4165853;28;20092;-67
2024/01/24 05:57:48;;;;;;;51.33;48.22;;;;;;;;;;4167754;28;20129;-67
2024/01/24 05:59:49;;;;;;;51.55;48.17;;;;;;;;;;4182647;28;20121;-67
2024/01/24 06:01:51;;;;;;;60.67;56.45;;;;;;;;;;4182437;28;20417;-67
2024/01/24 06:03:53;;;;;;;54.33;50.80;;;;;;;;;;4182524;28;20044;-67
2024/01/24 06:05:55;;;;;;;53.10;49.47;;;;;;;;;;4182287;28;20037;-67
2024/01/24 06:07:57;;;;;;;54.47;50.55;;;;;;;;;;4164230;28;20045;-67
2024/01/24 06:09:58;;;;;;;54.13;50.42;;;;;;;;;;4182382;28;20419;-67
2024/01/24 06:12:01;;;;;;;57.03;53.33;;;;;;;;;;4182018;28;20128;-67
2024/01/24 06:14:03;;;;;;;57.72;53.92;;;;;;;;;;4176144;28;20322;-67
2024/01/24 06:16:04;;;;;;;55.72;52.38;;;;;;;;;;4165508;28;20037;-62
2024/01/24 06:18:06;;;;;;;52.50;49.47;;;;;;;;;;4163235;28;20063;-63
2024/01/24 06:20:09;;;;;;;61.23;56.63;;;;;;;;;;4164719;28;20280;-63
2024/01/24 06:22:13;;;;;;;53.60;50.20;;;;;;;;;;4165565;28;20037;-63
2024/01/24 06:24:15;;;;;;;55.97;52.42;;;;;;;;;;4165601;28;20041;-63
2024/01/24 06:26:19;;;;;;;56.63;53.08;;;;;;;;;;4165688;28;20041;-63
2024/01/24 06:28:26;;;;;;;64.50;59.63;;;;;;;;;;4165599;28;20429;-63
2024/01/24 06:30:27;;;;;;;58.42;54.47;;;;;;;;;;4165708;28;20090;-63
2024/01/24 06:32:32;;;;;;;57.95;53.75;;;;;;;;;;4165718;28;20042;-62
2024/01/24 06:34:33;;;;;;;56.22;52.30;;;;;;;;;;4164464;28;20041;-62
2024/01/24 06:36:35;;;;;;;54.97;51.63;;;;;;;;;;4148865;28;20077;-63
2024/01/24 06:38:37;;;;;;;67.50;61.13;;;;;;;;;;4162097;28;20385;-63
2024/01/24 06:40:42;;;;;;;86.22;74.82;;;;;;;;;;4165707;28;20311;-63
2024/01/24 06:42:44;;;;;;;59.47;55.28;;;;;;;;;;4159930;28;20044;-63
2024/01/24 06:44:46;;;;;;;54.20;50.78;;;;;;;;;;4131633;28;20093;-63
2024/01/24 06:46:47;;;;;;;59.53;55.47;;;;;;;;;;4148742;28;20064;-63
2024/01/24 06:48:49;;;;;;;57.17;53.78;;;;;;;;;;4160591;28;20123;-63
2024/01/24 06:50:54;;;;;;;54.65;51.53;;;;;;;;;;4174687;28;20052;-63
2024/01/24 06:52:55;;;;;;;58.03;54.03;;;;;;;;;;4147688;28;20130;-60
2024/01/24 06:54:59;;;;;;;73.10;66.72;;;;;;;;;;4175044;28;20436;-59
2024/01/24 06:57:03;;;;;;;54.10;50.55;;;;;;;;;;4166821;28;20041;-60
2024/01/24 06:59:05;;;;;;;54.95;51.35;;;;;;;;;;4156413;28;20042;-60
2024/01/24 07:01:07;;;;;;;59.88;55.67;;;;;;;;;;4156528;28;20123;-60
2024/01/24 07:03:09;;;;;;;73.75;66.45;;;;;;;;;;4162966;28;20076;-60
2024/01/24 07:05:11;;;;;;;61.95;57.00;;;;;;;;;;4165242;28;20041;-60
2024/01/24 07:07:14;;;;;;;59.58;55.65;;;;;;;;;;4163464;28;20442;-61
2024/01/24 07:09:16;;;;;;;55.15;51.97;;;;;;;;;;4159711;28;20041;-60
2024/01/24 07:11:18;;;;;;;52.37;48.57;;;;;;;;;;4161623;28;20596;-60
2024/01/24 07:13:19;;;;;;;56.40;52.77;;;;;;;;;;4158890;28;20297;-60
2024/01/24 07:15:21;;;;;;;51.60;48.77;;;;;;;;;;4163489;28;20124;-61
2024/01/24 07:17:23;;;;;;;54.77;51.47;;;;;;;;;;4161079;28;20041;-61
2024/01/24 07:19:25;;;;;;;55.22;51.85;;;;;;;;;;4159701;28;20844;-60
2024/01/24 07:21:27;;;;;;;57.03;52.97;;;;;;;;;;4164118;28;20045;-60
2024/01/24 07:23:28;;;;;;;54.50;51.47;;;;;;;;;;4162451;28;20116;-60
2024/01/24 07:25:30;;;;;;;51.75;48.78;;;;;;;;;;4164716;28;20041;-60
2024/01/24 07:27:33;;;;;;;57.58;53.83;;;;;;;;;;4164033;28;20078;-60
2024/01/24 07:29:36;;;;;;;61.40;57.15;;;;;;;;;;4161005;28;20041;-62
2024/01/24 07:31:40;;;;;;;61.83;57.27;;;;;;;;;;4160500;28;20037;-60
2024/01/24 07:33:42;;;;;;;56.33;52.35;;;;;;;;;;4160994;28;20037;-60
2024/01/24 07:35:44;;;;;;;56.67;52.40;;;;;;;;;;4162166;28;20041;-60
2024/01/24 07:37:45;;;;;;;55.88;52.25;;;;;;;;;;4148213;28;20049;-60
2024/01/24 07:39:47;;;;;;;54.63;51.23;;;;;;;;;;4154817;28;20116;-60
2024/01/24 07:41:49;;;;;;;52.88;49.65;;;;;;;;;;4161201;28;20056;-62
2024/01/24 07:43:51;;;;;;;54.38;50.55;;;;;;;;;;4161958;28;20428;-60
2024/01/24 07:45:54;;;;;;;52.27;48.93;;;;;;;;;;4158404;28;20417;-61
2024/01/24 07:47:55;;;;;;;58.55;54.63;;;;;;;;;;4161617;28;20168;-60
2024/01/24 07:49:57;;;;;;;54.70;51.53;;;;;;;;;;4144936;28;20560;-60
2024/01/24 07:52:00;;;;;;;49.55;46.67;;;;;;;;;;4178294;28;20041;-60
2024/01/24 07:54:02;;;;;;;53.72;50.72;;;;;;;;;;4164320;28;20038;-60
2024/01/24 07:56:04;;;;;;;49.55;46.85;;;;;;;;;;4162748;28;20489;-60
2024/01/24 07:58:20;;;;;;;50.47;47.55;;;;;;;;;;4162247;28;20037;-60
2024/01/24 08:00:22;;;;;;;55.23;52.10;;;;;;;;;;4159100;28;20045;-62
2024/01/24 08:02:24;;;;;;;51.63;48.60;;;;;;;;;;4162430;28;20322;-60
2024/01/24 08:04:26;;;;;;;50.13;47.57;;;;;;;;;;4159779;28;20100;-60
2024/01/24 08:06:29;;;;;;;49.55;47.05;;;;;;;;;;4164095;28;20087;-60
2024/01/24 08:08:30;;;;;;;48.08;45.42;;;;;;;;;;4149431;28;20192;-60
2024/01/24 08:10:32;;;;;;;51.93;48.53;;;;;;;;;;4146406;28;20048;-62
2024/01/24 08:12:34;;;;;;;51.73;48.87;;;;;;;;;;4146301;28;20064;-60
2024/01/24 08:14:36;;;;;;;53.25;50.13;;;;;;;;;;4146979;28;20687;-61
2024/01/24 08:16:57;;;;;;;51.75;48.28;;;;;;;;;;4126844;28;20054;-61
2024/01/24 08:19:00;;;;;;;56.03;52.17;;;;;;;;;;4143418;28;20410;-60
2024/01/24 08:21:02;;;;;;;52.00;48.88;;;;;;;;;;4146362;28;20049;-61
2024/01/24 08:23:08;;;;;;;53.55;50.60;;;;;;;;;;4159709;28;20045;-60
2024/01/24 08:25:10;;;;;;;54.28;50.47;;;;;;;;;;4163242;28;20562;-60
2024/01/24 08:27:12;;;;;;;49.87;46.80;;;;;;;;;;4162776;28;20037;-60
2024/01/24 08:29:15;;;;;;;48.50;45.65;;;;;;;;;;4163947;28;20284;-60
2024/01/24 08:31:30;;;;;;;44.22;41.97;;;;;;;;;;4165968;28;20057;-60
2024/01/24 08:33:32;;;;;;;45.25;43.28;;;;;;;;;;4166147;28;20488;-60
2024/01/24 08:35:36;;;;;;;;;;;;;;;;;;4166991;28;20042;-60
2024/01/24 08:37:37;;;;;;;42.10;40.60;;;;;;;;;;4166044;28;19927;-60
2024/01/24 08:39:39;;;;;;;46.90;43.97;;;;;;;;;;4167097;28;20095;-60
2024/01/24 08:41:41;;;;;;;45.92;43.47;;;;;;;;;;4166377;28;20096;-60
2024/01/24 08:43:43;;;;;;;49.58;46.83;;;;;;;;;;4167075;28;20456;-60
2024/01/24 08:45:44;;;;;;;49.70;46.50;;;;;;;;;;4164136;28;20128;-62
2024/01/24 08:47:51;;;;;;;55.33;51.65;;;;;;;;;;4164545;28;20065;-59
2024/01/24 08:49:56;;;;;;;53.40;49.30;;;;;;;;;;4181836;28;20079;-60
2024/01/24 08:52:00;;;;;;;63.60;58.35;;;;;;;;;;4165897;28;20049;-60
2024/01/24 08:54:02;;;;;;;62.60;58.10;;;;;;;;;;4160381;28;20063;-61
2024/01/24 08:56:05;;;;;;;56.67;52.47;;;;;;;;;;4165323;28;20401;-60
2024/01/24 08:58:06;;;;;;;57.72;53.83;;;;;;;;;;4166854;28;20046;-61
2024/01/24 09:00:09;;;;;;;53.15;49.85;;;;;;;;;;4166091;28;20413;-61
2024/01/24 09:02:11;;;;;;;56.05;52.28;;;;;;;;;;4165102;28;20044;-61
2024/01/24 09:04:12;;;;;;;60.50;56.08;;;;;;;;;;4165703;28;20294;-61
2024/01/24 09:06:15;;;;;;;54.60;50.42;;;;;;;;;;4150490;28;20045;-61
2024/01/24 09:08:17;;;;;;;54.30;50.53;;;;;;;;;;4164347;28;20037;-61
2024/01/24 09:10:19;;;;;;;59.85;55.38;;;;;;;;;;4165920;28;20033;-61
2024/01/24 09:12:21;;;;;;;62.45;56.22;;;;;;;;;;4164863;28;20409;-65
2024/01/24 09:14:24;;;;;;;65.03;58.88;;;;;;;;;;4163686;28;20042;-61
2024/01/24 09:16:26;;;;;;;50.92;47.35;;;;;;;;;;4143410;28;20584;-61
2024/01/24 09:18:28;;;;;;;55.65;51.10;;;;;;;;;;4148586;28;20042;-61
2024/01/24 09:20:30;;;;;;;53.75;49.03;;;;;;;;;;4143453;28;20049;-61
2024/01/24 09:22:34;;;;;;;54.58;50.63;;;;;;;;;;4150181;28;20119;-61
2024/01/24 09:24:36;;;;;;;52.60;48.55;;;;;;;;;;4148195;28;20045;-61
2024/01/24 09:26:39;;;;;;;55.15;50.45;;;;;;;;;;4146714;28;20045;-61
2024/01/24 09:28:40;;;;;;;55.60;51.33;;;;;;;;;;4148741;28;20041;-61
2024/01/24 09:30:42;;;;;;;53.35;49.78;;;;;;;;;;4131124;28;20048;-61
2024/01/24 09:32:44;;;;;;;52.92;48.55;;;;;;;;;;4131509;28;20093;-61
2024/01/24 09:34:46;;;;;;;51.20;47.03;;;;;;;;;;4150228;28;20048;-60
2024/01/24 09:36:49;;;;;;;57.83;53.55;;;;;;;;;;4148403;28;20323;-61
2024/01/24 09:38:51;;;;;;;55.33;51.13;;;;;;;;;;4147359;28;20034;-61
2024/01/24 09:40:57;;;;;;;49.75;46.60;;;;;;;;;;4130381;28;20150;-61
2024/01/24 09:43:00;;;;;;;47.03;43.72;;;;;;;;;;4152451;28;20029;-60
2024/01/24 09:45:02;;;;;;;46.97;44.17;;;;;;;;;;4165341;28;20575;-61
2024/01/24 09:47:09;;;;;;;45.97;43.00;;;;;;;;;;4165995;28;20485;-61
2024/01/24 09:49:10;;;;;;;50.03;46.65;;;;;;;;;;4157275;28;20042;-61
2024/01/24 09:51:13;;;;;;;52.45;49.15;;;;;;;;;;4149590;28;20053;-60
2024/01/24 09:53:19;;;;;;;47.08;44.10;;;;;;;;;;4149979;28;20046;-61
2024/01/24 09:55:21;;;;;;;49.65;46.25;;;;;;;;;;4149985;28;20104;-60
2024/01/24 09:57:23;;;;;;;52.00;48.30;;;;;;;;;;4149642;28;20501;-61
2024/01/24 09:59:25;;;;;;;56.75;51.53;;;;;;;;;;4149908;28;20096;-61
2024/01/24 10:01:37;;;;;;;59.70;54.53;;;;;;;;;;4149573;28;20494;-61
2024/01/24 10:03:40;;;;;;;64.28;58.28;;;;;;;;;;4149715;28;20042;-60
2024/01/24 10:05:41;;;;;;;;;;;;;;;;;;4150103;28;20042;-61
2024/01/24 10:07:43;;;;;;;102.60;75.60;;;;;;;;;;4149521;28;20003;-61
2024/01/24 10:09:48;;;;;;;60.25;55.05;;;;;;;;;;4149552;28;20041;-60
2024/01/24 10:11:50;;;;;;;54.90;50.90;;;;;;;;;;4149256;28;20103;-61
2024/01/24 10:13:56;;;;;;;48.67;45.03;;;;;;;;;;4149844;28;20120;-60
2024/01/24 10:15:59;;;;;;;69.15;61.28;;;;;;;;;;4149332;28;20046;-60
2024/01/24 10:18:01;;;;;;;59.72;53.83;;;;;;;;;;4149511;28;20045;-61
2024/01/24 10:20:06;;;;;;;63.92;57.55;;;;;;;;;;4149551;28;20041;-61
2024/01/24 10:22:09;;;;;;;71.25;62.97;;;;;;;;;;4149303;28;20048;-61
2024/01/24 10:24:11;;;;;;;67.35;60.53;;;;;;;;;;4149400;28;20042;-60
2024/01/24 10:26:16;;;;;;;62.55;56.63;;;;;;;;;;4149502;28;20520;-61
2024/01/24 10:28:18;;;;;;;61.05;55.58;;;;;;;;;;4149366;28;20042;-60
2024/01/24 10:30:22;;;;;;;56.55;51.25;;;;;;;;;;4149490;28;20042;-60
2024/01/24 10:32:27;;;;;;;60.40;54.70;;;;;;;;;;4149319;28;20080;-60
2024/01/24 10:34:30;;;;;;;66.43;59.95;;;;;;;;;;4138876;28;20045;-60
2024/01/24 10:36:35;;;;;;;56.72;51.58;;;;;;;;;;4133198;28;20050;-60
2024/01/24 10:38:44;;;;;;;55.03;50.30;;;;;;;;;;4145973;28;20042;-60
2024/01/24 10:40:45;;;;;;;60.05;54.60;;;;;;;;;;4164717;28;20436;-60
2024/01/24 10:42:53;;;;;;;56.33;51.63;;;;;;;;;;4161008;28;20033;-60
2024/01/24 10:44:56;;;;;;;53.63;49.30;;;;;;;;;;4148403;28;20042;-60
2024/01/24 10:46:57;;;;;;;54.75;50.28;;;;;;;;;;4145645;28;20040;-60
2024/01/24 10:48:59;;;;;;;48.90;45.05;;;;;;;;;;4148034;28;20061;-60
2024/01/24 10:51:02;;;;;;;51.17;47.10;;;;;;;;;;4156531;28;20034;-60
2024/01/24 10:53:05;;;;;;;52.53;48.75;;;;;;;;;;4143691;28;20485;-60
2024/01/24 10:55:07;;;;;;;53.28;49.25;;;;;;;;;;4143405;28;20077;-62
2024/01/24 10:57:10;;;;;;;48.90;45.22;;;;;;;;;;4132690;28;20066;-60
2024/01/24 10:59:13;;;;;;;37.78;35.78;;;;;;;;;;4144081;28;20046;-60
2024/01/24 11:01:15;;;;;;;38.97;36.60;;;;;;;;;;4132765;28;20062;-61
2024/01/24 11:03:17;;;;;;;31.77;30.08;;;;;;;;;;4143091;28;20406;-60
2024/01/24 11:05:26;;;;;;;32.80;31.38;;;;;;;;;;4132776;28;20088;-60
2024/01/24 11:07:30;;;;;;;34.58;32.78;;;;;;;;;;4136375;28;20046;-60
2024/01/24 11:09:40;;;;;;;33.72;32.53;;;;;;;;;;4138546;28;20041;-60
2024/01/24 11:11:43;;;;;;;30.17;28.67;;;;;;;;;;4148672;28;20129;-60
2024/01/24 11:13:46;;;;;;;36.40;34.42;;;;;;;;;;4146411;28;20057;-60
2024/01/24 11:15:47;;;;;;;33.13;31.63;;;;;;;;;;4148107;28;20132;-60
2024/01/24 11:18:08;;;;;;;34.90;32.88;;;;;;;;;;4136539;28;20061;-60
2024/01/24 11:20:10;;;;;;;32.60;31.42;;;;;;;;;;4139231;28;20041;-60
2024/01/24 11:22:22;;;;;;;31.27;29.70;;;;;;;;;;4148437;28;20065;-60
2024/01/24 11:24:39;;;;;;;32.22;30.73;;;;;;;;;;4148411;28;20418;-61
2024/01/24 11:26:48;;;;;;;34.70;32.60;;;;;;;;;;4148356;28;20065;-60
2024/01/24 11:29:04;;;;;;;37.35;35.30;;;;;;;;;;4146566;28;20069;-60
2024/01/24 11:31:07;;;;;;;34.53;32.60;;;;;;;;;;4136249;28;20052;-60
2024/01/24 11:33:13;;;;;;;38.63;36.45;;;;;;;;;;4132336;28;20105;-60
2024/01/24 11:35:25;;;;;;;34.95;32.92;;;;;;;;;;4149210;28;20041;-60
2024/01/24 11:37:30;;;;;;;36.70;34.85;;;;;;;;;;4164738;28;20065;-60
2024/01/24 11:39:37;;;;;;;36.25;34.17;;;;;;;;;;4156836;28;20044;-60
2024/01/24 11:41:41;;;;;;;36.58;34.40;;;;;;;;;;4131709;28;20046;-60
2024/01/24 11:43:44;;;;;;;36.67;34.78;;;;;;;;;;4131754;28;20050;-60
2024/01/24 11:45:46;;;;;;;37.28;34.80;;;;;;;;;;4135946;28;20042;-60
2024/01/24 11:47:48;;;;;;;34.30;32.17;;;;;;;;;;4147878;28;20478;-60
2024/01/24 11:49:50;;;;;;;33.60;31.73;;;;;;;;;;4162462;28;20045;-60
2024/01/24 11:52:02;;;;;;;35.63;33.35;;;;;;;;;;4149326;28;20548;-60
2024/01/24 11:54:04;;;;;;;34.47;32.28;;;;;;;;;;4147470;28;20050;-60
2024/01/24 11:56:06;;;;;;;38.87;36.70;;;;;;;;;;4147784;28;20107;-60